CYYG

Charlottetown Airport

Charlottetown, Prince Edward Island, Canada
TAF CYYG 261140Z 2612/2624 15015G25KT P6SM -RA SCT040 OVC080 FM261400 17020G35KT 4SM -RA BR OVC015 TEMPO 2614/2620 1SM -RA BR OVC007 FM262000 16020G35KT 2SM -DZ BR OVC005 RMK NXT FCST BY 261800Z
Issued Valid From Valid To
Apr-26 @ 11:40 UTC
(2 hours ago)
Apr-26 @ 12:00 UTC
(2 hours ago)
Apr-27 @ 00:00 UTC
(in 10 hours)
Apr-26 @ 12:00 to Apr-26 @ 14:00
TAF CYYG 261140Z 2612/2624 15015G25KT P6SM -RA SCT040 OVC080
Wind Visibility Clouds Conditions
150° at 15 knots
 Gusting to 25 knots
Greater than 6 miles
  • Scattered at 4,000' AGL
  • Overcast at 8,000' AGL
  • Light Rain
From Apr-26 @ 14:00 to Apr-26 @ 20:00
FM261400 17020G35KT 4SM -RA BR OVC015
Wind Visibility Clouds Conditions
170° at 20 knots
 Gusting to 35 knots
4 miles
  • Overcast at 1,500' AGL
  • Light Rain
  • Mist
Temporary Apr-26 @ 14:00 to Apr-26 @ 20:00
TEMPO 2614/2620 1SM -RA BR OVC007
Visibility Clouds Conditions
1 miles
  • Overcast at 700' AGL
  • Light Rain
  • Mist
From Apr-26 @ 20:00 to Apr-27 @ 00:00
FM262000 16020G35KT 2SM -DZ BR OVC005 RMK NXT FCST BY 261800Z
Wind Visibility Clouds Conditions
160° at 20 knots
 Gusting to 35 knots
2 miles
  • Overcast at 500' AGL
  • Light Drizzle
  • Mist
TAF CYYG 261140Z 2612/2624 15015G25KT P6SM -RA SCT040 OVC080 FM261400 17020G35KT 4SM -RA BR OVC015 TEMPO 2614/2620 1SM -RA BR OVC007 FM262000 16020G35KT 2SM -DZ BR OVC005 RMK NXT FCST BY 261800Z
Issued Apr-26 @ 11:40 UTC
(2 hours ago)
Valid From Apr-26 @ 12:00 UTC
(2 hours ago)
Valid To Apr-27 @ 00:00 UTC
(in 10 hours)
Apr-26 @ 12:00 - Apr-26 @ 14:00
Wind Visibility
150° at 15 knots
 Gusting to 25 knots
Greater than 6 miles
Clouds
  • Scattered at 4,000' AGL
  • Overcast at 8,000' AGL
Conditions
  • Light Rain
From Apr-26 @ 14:00 - Apr-26 @ 20:00
Wind Visibility
170° at 20 knots
 Gusting to 35 knots
4 miles
Clouds
  • Overcast at 1,500' AGL
Conditions
  • Light Rain
  • Mist
Temporary Apr-26 @ 14:00 - Apr-26 @ 20:00
Clouds
  • Overcast at 700' AGL
Conditions
  • Light Rain
  • Mist
From Apr-26 @ 20:00 - Apr-27 @ 00:00
Wind Visibility
160° at 20 knots
 Gusting to 35 knots
2 miles
Clouds
  • Overcast at 500' AGL
Conditions
  • Light Drizzle
  • Mist